Terminal Aerodrome Forecast
Issued by NWS

Home | Current Version | Previous Version | Text Only | Print | Product List | Glossary On
Versions: 1 2 3 4 5 6 7 8 9 10 11 12 13 14 15 16 17 18 19 20 21 22 23 24
000
FTUS43 KEAX 210500
TAFSTJ
TAF
KSTJ 210538Z 2106/2206 08005KT P6SM SKC
     FM211600 12008KT P6SM BKN030
     FM212100 14005KT 6SM -SHRA OVC020
     FM220200 15005KT 5SM -DZ OVC010=

USA.gov is the U.S. government's official web portal to all federal, state and local government web resources and services.